Time;durP1;ratioP1;P1;durP2;ratioP2;P2;SDS_P1;SDS_P2;PMS_P1;PMS_P2;Temp;Humidity;BMP_temperature;BMP_pressure;BME280_temperature;BME280_humidity;BME280_pressure;Samples;Min_cycle;Max_cycle;Signal;HPM_P1;HPM_P2
2021/03/02 00:00:51;;;;;;;8.45;5.18;;;;;;;22.67;34.78;96404.66;5012908;28;20029;-79
2021/03/02 00:03:17;;;;;;;8.65;5.85;;;;;;;22.63;34.99;96398.63;5030718;28;20083;-80
2021/03/02 00:05:45;;;;;;;10.40;6.40;;;;;;;22.60;34.89;96415.91;5030997;28;20038;-80
2021/03/02 00:08:10;;;;;;;8.30;5.47;;;;;;;22.59;35.20;96411.72;5031312;28;20034;-80
2021/03/02 00:10:39;;;;;;;8.77;5.55;;;;;;;22.62;34.95;96413.50;5028532;28;20509;-80
2021/03/02 00:13:05;;;;;;;9.38;5.97;;;;;;;22.57;35.05;96416.84;5031089;28;20462;-80
2021/03/02 00:15:30;;;;;;;7.82;5.07;;;;;;;22.56;35.07;96415.38;5012955;28;20060;-80
2021/03/02 00:17:56;;;;;;;8.80;5.85;;;;;;;22.49;35.02;96405.59;5030588;28;20052;-80
2021/03/02 00:20:23;;;;;;;8.77;5.65;;;;;;;22.53;35.05;96410.88;5030022;28;20036;-80
2021/03/02 00:23:07;;;;;;;8.77;5.70;;;;;;;22.46;35.21;96400.34;5030559;28;20047;-80
2021/03/02 00:25:43;;;;;;;8.32;5.65;;;;;;;22.49;35.02;96410.28;5014853;28;20053;-78
2021/03/02 00:28:09;;;;;;;9.43;5.80;;;;;;;22.47;35.13;96407.28;5030844;28;20512;-80
2021/03/02 00:30:35;;;;;;;8.32;5.60;;;;;;;22.17;35.25;96351.34;5045734;28;20033;-80
2021/03/02 00:33:01;;;;;;;7.88;5.72;;;;;;;22.45;35.16;96405.03;5030872;28;20471;-81
2021/03/02 00:35:27;;;;;;;10.80;6.18;;;;;;;22.38;35.09;96377.44;5030788;28;20044;-81
2021/03/02 00:37:52;;;;;;;8.35;5.75;;;;;;;22.37;35.30;96386.09;5029260;28;20148;-80
2021/03/02 00:40:18;;;;;;;9.00;5.68;;;;;;;22.41;35.26;96393.59;5032258;28;20033;-80
2021/03/02 00:42:43;;;;;;;9.75;6.00;;;;;;;22.40;35.20;96390.59;5030873;28;20504;-80
2021/03/02 00:45:10;;;;;;;10.30;6.35;;;;;;;22.32;35.25;96379.34;5031507;28;20028;-80
2021/03/02 00:47:35;;;;;;;9.02;5.88;;;;;;;22.37;35.54;96397.72;5029757;28;20036;-80
2021/03/02 00:50:04;;;;;;;8.55;5.80;;;;;;;22.35;35.21;96400.16;5029381;28;20026;-80
2021/03/02 00:52:30;;;;;;;10.40;6.30;;;;;;;22.32;35.38;96394.91;5030950;28;20080;-79
2021/03/02 00:54:55;;;;;;;10.00;6.25;;;;;;;22.31;35.33;96391.44;5034192;28;20033;-81
2021/03/02 00:57:20;;;;;;;8.25;5.50;;;;;;;22.31;35.32;96387.97;5035763;28;20025;-80
2021/03/02 00:59:46;;;;;;;8.65;6.07;;;;;;;22.29;35.55;96387.69;5035387;28;20033;-80
2021/03/02 01:02:11;;;;;;;10.35;6.38;;;;;;;22.27;35.28;96393.59;5033534;28;20036;-80
2021/03/02 01:04:37;;;;;;;9.02;5.68;;;;;;;22.07;35.62;96358.06;5034567;28;20029;-80
2021/03/02 01:07:04;;;;;;;9.18;5.95;;;;;;;22.26;35.44;96386.66;5033151;28;20033;-80
2021/03/02 01:09:30;;;;;;;9.65;6.47;;;;;;;21.83;35.24;96315.13;5033413;28;20033;-78
2021/03/02 01:11:56;;;;;;;8.45;6.15;;;;;;;22.25;35.66;96384.41;5032472;28;20029;-80
2021/03/02 01:14:21;;;;;;;9.52;5.93;;;;;;;22.23;35.43;96393.03;5034230;28;20037;-80
2021/03/02 01:16:46;;;;;;;8.98;6.15;;;;;;;22.22;35.42;96391.50;5033140;28;20029;-80
2021/03/02 01:19:12;;;;;;;10.13;5.90;;;;;;;22.18;35.21;96390.94;5032519;28;20037;-80
2021/03/02 01:21:37;;;;;;;9.98;6.25;;;;;;;22.18;35.46;96390.94;5034058;28;20022;-80
2021/03/02 01:24:03;;;;;;;9.88;6.35;;;;;;;22.17;35.53;96383.97;5034251;28;20026;-79
2021/03/02 01:26:28;;;;;;;10.32;6.25;;;;;;;21.97;35.99;96353.97;5033921;28;20120;-80
2021/03/02 01:28:54;;;;;;;10.35;6.38;;;;;;;22.14;35.49;96376.75;5032495;28;20037;-82
2021/03/02 01:31:20;;;;;;;9.15;5.90;;;;;;;22.13;35.65;96383.41;5035769;28;20028;-80
2021/03/02 01:33:45;;;;;;;9.80;6.32;;;;;;;22.12;35.61;96365.59;5032942;28;20026;-80
2021/03/02 01:36:10;;;;;;;10.23;6.20;;;;;;;22.10;35.67;96368.03;5032338;28;20029;-80
2021/03/02 01:38:36;;;;;;;9.30;6.13;;;;;;;22.00;35.60;96353.03;5031487;28;20037;-80
2021/03/02 01:41:01;;;;;;;8.88;5.90;;;;;;;22.07;35.75;96365.50;5032318;28;20128;-79
2021/03/02 01:43:27;;;;;;;9.30;6.38;;;;;;;22.05;35.78;96363.25;5032604;28;20026;-80
2021/03/02 01:45:52;;;;;;;10.15;6.30;;;;;;;22.06;35.70;96367.47;5032512;28;20288;-80
2021/03/02 01:48:18;;;;;;;11.57;6.38;;;;;;;22.07;35.57;96374.41;5032254;28;20029;-80
2021/03/02 01:50:43;;;;;;;10.55;6.35;;;;;;;22.04;35.65;96369.16;5030816;28;20044;-80
2021/03/02 01:53:09;;;;;;;10.35;6.65;;;;;;;22.04;35.71;96364.44;5031927;28;20021;-80
2021/03/02 01:55:34;;;;;;;10.57;6.32;;;;;;;22.03;35.68;96368.41;5032116;28;20101;-81
2021/03/02 01:58:00;;;;;;;9.20;5.97;;;;;;;22.00;35.75;96372.06;5032057;28;20529;-80
2021/03/02 02:00:30;;;;;;;9.55;6.63;;;;;;;22.01;35.75;96359.94;5031888;28;20165;-79
2021/03/02 02:03:17;;;;;;;8.55;6.18;;;;;;;21.96;35.76;96352.44;5030438;28;20812;-80
2021/03/02 02:05:57;;;;;;;11.20;6.38;;;;;;;21.97;35.71;96353.97;5030080;28;20041;-78
2021/03/02 02:08:25;;;;;;;10.10;6.25;;;;;;;21.88;35.84;96338.94;5031644;28;20068;-79
2021/03/02 02:10:59;;;;;;;10.25;6.85;;;;;;;21.16;35.71;96241.66;5030848;28;20042;-80
2021/03/02 02:13:32;;;;;;;11.38;6.80;;;;;;;21.47;35.87;96291.72;5015108;28;20029;-80
2021/03/02 02:16:00;;;;;;;9.90;6.32;;;;;;;21.93;35.75;96358.81;5031093;28;20118;-80
2021/03/02 02:18:29;;;;;;;9.75;6.40;;;;;;;21.93;35.78;96352.63;5015002;28;20059;-79
2021/03/02 02:21:06;;;;;;;10.30;6.88;;;;;;;21.93;35.55;96353.38;5015179;28;20056;-80
2021/03/02 02:23:35;;;;;;;10.65;6.68;;;;;;;21.91;35.88;96351.59;5033523;28;20029;-80
2021/03/02 02:26:25;;;;;;;10.02;6.53;;;;;;;21.90;35.90;96352.78;5032532;28;20083;-80
2021/03/02 02:28:50;;;;;;;10.40;6.65;;;;;;;21.87;35.96;96375.50;5030971;28;20025;-80
2021/03/02 02:31:18;;;;;;;10.68;6.90;;;;;;;21.90;35.71;96385.44;5032530;28;20037;-80
2021/03/02 02:33:44;;;;;;;11.18;6.75;;;;;;;21.80;35.61;96359.56;5014710;28;20032;-80
2021/03/02 02:36:11;;;;;;;10.68;6.57;;;;;;;21.86;35.89;96374.00;5014670;28;20026;-79
2021/03/02 02:38:38;;;;;;;10.63;6.75;;;;;;;21.81;35.77;96366.47;5031676;28;20155;-79
2021/03/02 02:41:04;;;;;;;9.27;6.50;;;;;;;21.84;35.80;96376.41;5014853;28;20060;-80
2021/03/02 02:43:29;;;;;;;10.23;7.13;;;;;;;21.83;35.86;96374.94;5031238;28;20536;-81
2021/03/02 02:45:55;;;;;;;10.05;6.15;;;;;;;21.79;35.96;96368.91;5030968;28;20044;-80
2021/03/02 02:48:20;;;;;;;11.38;6.57;;;;;;;21.77;35.97;96372.09;5032190;28;20025;-80
2021/03/02 02:50:46;;;;;;;9.25;6.20;;;;;;;21.75;35.82;96362.91;5030883;28;20033;-80
2021/03/02 02:53:12;;;;;;;9.45;6.63;;;;;;;21.79;35.88;96368.91;5013914;28;20227;-80
2021/03/02 02:55:41;;;;;;;9.32;6.30;;;;;;;21.77;36.01;96365.91;5030485;28;20025;-79
2021/03/02 02:58:07;;;;;;;9.40;6.05;;;;;;;21.71;36.12;96367.78;5031741;28;20033;-80
2021/03/02 03:00:33;;;;;;;9.75;6.45;;;;;;;21.73;35.81;96376.22;5030773;28;20044;-79
2021/03/02 03:02:59;;;;;;;9.93;6.45;;;;;;;21.69;36.02;96381.09;5014115;28;20566;-81
2021/03/02 03:05:24;;;;;;;10.30;6.65;;;;;;;21.72;35.95;96383.63;5014060;28;20029;-79
2021/03/02 03:07:53;;;;;;;9.93;6.47;;;;;;;21.74;35.91;96388.59;5031735;28;20083;-79
2021/03/02 03:10:19;;;;;;;9.48;7.00;;;;;;;21.72;35.95;96385.56;5027328;28;20060;-80
2021/03/02 03:12:48;;;;;;;10.32;6.47;;;;;;;21.70;35.97;96386.06;5031547;28;20589;-80
2021/03/02 03:15:15;;;;;;;10.65;6.35;;;;;;;21.33;35.82;96324.25;5031765;28;20029;-80
2021/03/02 03:17:43;;;;;;;10.95;6.70;;;;;;;21.31;35.94;96329.38;5029847;28;20112;-80
2021/03/02 03:20:10;;;;;;;11.20;6.43;;;;;;;21.68;36.03;96385.03;5013212;28;20029;-80
2021/03/02 03:22:35;;;;;;;10.07;6.75;;;;;;;21.68;36.00;96393.91;5031510;28;20030;-80
2021/03/02 03:25:02;;;;;;;8.85;6.35;;;;;;;21.66;35.80;96387.47;5031764;28;20055;-80
2021/03/02 03:27:29;;;;;;;8.48;6.32;;;;;;;21.67;36.14;96394.38;5030792;28;20025;-80
2021/03/02 03:29:54;;;;;;;10.20;6.75;;;;;;;20.93;35.78;96276.25;5014886;28;20041;-80
2021/03/02 03:32:20;;;;;;;10.73;6.97;;;;;;;21.64;36.05;96392.59;5013762;28;20033;-79
2021/03/02 03:34:45;;;;;;;11.35;7.22;;;;;;;21.12;35.83;96321.81;5029743;28;20025;-80
2021/03/02 03:37:11;;;;;;;9.20;6.53;;;;;;;21.52;36.17;96377.28;5030378;28;20501;-79
2021/03/02 03:39:36;;;;;;;9.90;6.90;;;;;;;21.62;36.07;96392.31;5029853;28;20024;-80
2021/03/02 03:42:02;;;;;;;9.88;6.57;;;;;;;21.49;36.05;96370.06;5031677;28;20025;-80
2021/03/02 03:44:27;;;;;;;11.30;6.57;;;;;;;21.61;35.51;96396.25;5031374;28;20481;-80
2021/03/02 03:46:53;;;;;;;9.75;6.72;;;;;;;21.60;36.00;96405.63;5031364;28;20029;-82
2021/03/02 03:49:18;;;;;;;10.52;7.00;;;;;;;21.59;35.97;96404.84;5029991;28;20025;-78
2021/03/02 03:51:44;;;;;;;10.27;6.90;;;;;;;21.59;36.17;96404.13;5030200;28;20029;-80
2021/03/02 03:54:09;;;;;;;10.60;6.55;;;;;;;21.65;36.04;96413.88;5030322;28;20021;-80
2021/03/02 03:56:35;;;;;;;8.70;6.38;;;;;;;21.62;36.11;96386.88;5013273;28;20021;-79
2021/03/02 03:59:01;;;;;;;10.40;6.13;;;;;;;21.72;36.23;96404.59;5031643;28;20417;-80
2021/03/02 04:01:27;;;;;;;10.10;6.75;;;;;;;21.75;36.13;96412.59;5031098;28;20508;-80
2021/03/02 04:03:52;;;;;;;9.00;6.50;;;;;;;21.67;35.99;96388.94;5030007;28;20053;-79
2021/03/02 04:06:18;;;;;;;9.02;5.60;;;;;;;21.79;36.06;96406.97;5029369;28;20036;-80
2021/03/02 04:08:43;;;;;;;10.40;6.53;;;;;;;21.82;35.90;96403.34;5029470;28;20025;-79
2021/03/02 04:11:08;;;;;;;9.68;5.97;;;;;;;21.82;36.06;96406.06;5029250;28;20464;-80
2021/03/02 04:13:34;;;;;;;10.82;7.00;;;;;;;21.72;35.84;96385.56;5029660;28;20018;-80
2021/03/02 04:15:59;;;;;;;9.10;6.20;;;;;;;21.89;35.92;96408.44;5031281;28;20023;-80
2021/03/02 04:18:25;;;;;;;8.80;6.90;;;;;;;21.82;36.16;96389.75;5030673;28;20021;-79
2021/03/02 04:20:51;;;;;;;9.52;5.95;;;;;;;21.87;36.08;96403.44;5028766;28;20409;-79
2021/03/02 04:23:16;;;;;;;10.73;6.43;;;;;;;21.94;35.77;96403.84;5029299;28;20022;-80
2021/03/02 04:25:42;;;;;;;8.98;6.43;;;;;;;21.96;35.54;96406.84;5030680;28;20028;-79
2021/03/02 04:28:07;;;;;;;10.98;6.55;;;;;;;21.98;35.86;96407.13;5030743;28;20040;-80
2021/03/02 04:30:34;;;;;;;9.38;6.30;;;;;;;22.00;35.83;96412.84;5034861;28;20026;-80
2021/03/02 04:32:59;;;;;;;11.65;7.05;;;;;;;22.01;35.83;96408.91;5031869;28;20029;-79
2021/03/02 04:35:25;;;;;;;9.88;6.50;;;;;;;21.98;35.80;96409.09;5031356;28;20520;-80
2021/03/02 04:37:50;;;;;;;9.90;6.00;;;;;;;21.93;35.62;96396.91;5034818;28;20021;-88
2021/03/02 04:40:16;;;;;;;10.40;6.32;;;;;;;22.08;35.91;96416.72;5017757;28;20403;-85
2021/03/02 04:42:42;;;;;;;9.13;6.07;;;;;;;22.13;35.95;96415.31;5027014;28;20025;-75
2021/03/02 04:45:08;;;;;;;7.90;5.95;;;;;;;22.03;36.10;96392.88;5025078;28;20059;-79
2021/03/02 04:47:34;;;;;;;9.43;5.60;;;;;;;21.77;36.13;96355.78;5027670;28;20022;-80
2021/03/02 04:49:59;;;;;;;8.93;5.95;;;;;;;21.74;35.78;96334.97;5009041;28;20079;-88
2021/03/02 04:52:25;;;;;;;8.50;6.30;;;;;;;21.84;36.12;96343.78;5027974;28;20095;-80
2021/03/02 04:54:50;;;;;;;10.07;6.97;;;;;;;22.31;35.89;96415.91;5016698;28;20022;-76
2021/03/02 04:57:16;;;;;;;9.43;5.88;;;;;;;22.36;35.73;96412.56;5036389;28;20029;-81
2021/03/02 04:59:41;;;;;;;9.05;5.55;;;;;;;21.93;35.54;96337.06;5036028;28;20030;-79
2021/03/02 05:02:07;;;;;;;10.50;6.32;;;;;;;22.48;35.50;96414.22;5029909;28;20460;-75
2021/03/02 05:04:32;;;;;;;9.02;5.47;;;;;;;22.56;35.37;96404.47;5031223;28;20068;-74
2021/03/02 05:06:58;;;;;;;7.35;5.55;;;;;;;22.64;35.47;96421.94;5029844;28;20032;-82
2021/03/02 05:09:23;;;;;;;9.48;6.05;;;;;;;22.63;34.96;96409.53;5029063;28;20421;-83
2021/03/02 05:11:49;;;;;;;10.98;6.75;;;;;;;22.81;34.95;96420.22;5034290;28;20021;-82
2021/03/02 05:14:14;;;;;;;8.90;5.97;;;;;;;22.46;35.04;96356.78;5033009;28;20049;-87
2021/03/02 05:16:40;;;;;;;9.95;6.28;;;;;;;22.70;34.77;96381.94;5002748;28;20028;-85
2021/03/02 05:19:05;;;;;;;8.15;5.60;;;;;;;23.03;34.61;96427.56;5031340;28;20025;-87
2021/03/02 05:21:30;;;;;;;7.60;5.63;;;;;;;23.00;34.62;96405.94;5031846;28;20026;-84
2021/03/02 05:23:56;;;;;;;8.10;5.57;;;;;;;22.87;34.30;96374.75;5028959;28;20037;-86
2021/03/02 05:26:21;;;;;;;9.13;6.00;;;;;;;23.17;34.39;96410.44;5030556;28;20514;-79
2021/03/02 05:28:48;;;;;;;13.77;6.07;;;;;;;23.28;34.25;96421.47;5032043;28;20025;-77
2021/03/02 05:31:14;;;;;;;8.85;5.60;;;;;;;23.01;33.88;96370.06;5028709;28;20333;-77
2021/03/02 05:33:39;;;;;;;7.70;5.55;;;;;;;23.48;34.07;96424.22;5008984;28;20635;-77
2021/03/02 05:36:05;;;;;;;7.57;5.93;;;;;;;23.27;33.78;96381.81;5008693;28;20541;-77
2021/03/02 05:38:30;;;;;;;7.85;5.53;;;;;;;23.69;33.94;96431.22;5026431;28;20021;-77
2021/03/02 05:40:56;;;;;;;7.50;5.78;;;;;;;22.94;33.35;96315.97;5030853;28;20025;-80
2021/03/02 05:43:21;;;;;;;9.55;5.95;;;;;;;23.67;33.87;96425.50;5015907;28;20025;-85
2021/03/02 05:45:47;;;;;;;8.07;5.88;;;;;;;23.91;33.61;96435.72;5015157;28;20029;-82
2021/03/02 05:48:12;;;;;;;8.35;5.47;;;;;;;23.93;33.29;96427.81;5031896;28;20033;-81
2021/03/02 05:50:38;;;;;;;8.77;5.55;;;;;;;23.99;32.91;96431.38;5034447;28;20033;-78
2021/03/02 05:53:04;;;;;;;8.50;5.75;;;;;;;-140.79;100.00;63287.88;5030106;28;20037;-74
2021/03/02 05:55:29;;;;;;;8.52;6.03;;;;;;;-140.79;100.00;63287.88;5031289;28;20120;-75
2021/03/02 05:57:56;;;;;;;11.70;5.78;;;;;;;-140.79;100.00;63287.88;5014363;28;20422;-74
2021/03/02 06:00:22;;;;;;;10.82;5.88;;;;;;;-140.79;100.00;63287.88;5030720;28;20041;-75
2021/03/02 06:02:47;;;;;;;8.18;5.47;;;;;;;-140.79;100.00;63287.88;5029117;28;20093;-75
2021/03/02 06:05:13;;;;;;;8.32;5.95;;;;;;;-140.79;100.00;63287.88;5027708;28;20034;-78
2021/03/02 06:07:39;;;;;;;8.45;5.55;;;;;;;-140.79;100.00;63287.88;5028373;28;20052;-80
2021/03/02 06:10:05;;;;;;;7.72;5.65;;;;;;;-140.79;100.00;63287.88;5031176;28;20025;-84
2021/03/02 06:12:30;;;;;;;8.73;6.10;;;;;;;-140.79;100.00;63287.88;5030667;28;20183;-84
2021/03/02 06:15:12;;;;;;;8.20;5.53;;;;;;;-140.79;100.00;63287.88;5014448;28;20018;-76
2021/03/02 06:17:37;;;;;;;9.18;5.78;;;;;;;-140.79;100.00;63287.88;5026653;28;20022;-76
2021/03/02 06:20:03;;;;;;;8.02;5.65;;;;;;;-140.79;100.00;63287.88;5026672;28;20091;-77
2021/03/02 06:22:36;;;;;;;9.68;6.00;;;;;;;-140.79;100.00;63287.88;5026363;28;20029;-76
2021/03/02 06:25:03;;;;;;;8.25;6.30;;;;;;;-140.79;100.00;63287.88;5030824;28;20163;-79
2021/03/02 06:27:30;;;;;;;9.35;6.65;;;;;;;-140.79;100.00;63287.88;5029251;28;20263;-83
2021/03/02 06:30:15;;;;;;;8.63;5.60;;;;;;;-140.79;100.00;63287.88;5031231;28;20017;-77
2021/03/02 06:32:45;;;;;;;9.30;6.32;;;;;;;-140.79;100.00;63287.88;5024396;28;20132;-76
2021/03/02 06:35:10;;;;;;;;;;;;;;;-140.79;100.00;63287.88;5029185;28;20056;-75
2021/03/02 06:37:43;;;;;;;8.40;5.88;;;;;;;-140.79;100.00;63287.88;5030230;28;19955;-77
2021/03/02 06:40:10;;;;;;;9.52;6.50;;;;;;;-140.79;100.00;63287.88;5023779;28;20030;-79
2021/03/02 06:42:40;;;;;;;9.77;5.95;;;;;;;-140.79;100.00;63287.88;5029110;28;20029;-78
2021/03/02 06:45:06;;;;;;;;;;;;;;;-140.79;100.00;63287.88;5028137;28;20027;-76
2021/03/02 06:47:39;;;;;;;9.18;5.70;;;;;;;-140.79;100.00;63287.88;5019845;28;20442;-76
2021/03/02 06:50:21;;;;;;;10.40;6.18;;;;;;;-140.79;100.00;63287.88;5028945;28;20421;-75
2021/03/02 06:52:46;;;;;;;8.50;6.30;;;;;;;-140.79;100.00;63287.88;5027716;28;20026;-79
2021/03/02 06:55:15;;;;;;;11.20;5.88;;;;;;;-140.79;100.00;63287.88;5011570;28;20430;-77
2021/03/02 06:57:40;;;;;;;8.20;6.13;;;;;;;-140.79;100.00;63287.88;5031453;28;20018;-78
2021/03/02 07:00:06;;;;;;;9.60;7.63;;;;;;;-140.79;100.00;63287.88;5027321;28;20037;-71
2021/03/02 07:02:39;;;;;;;12.18;7.07;;;;;;;-140.79;100.00;63287.88;5028228;28;20095;-74
2021/03/02 07:05:15;;;;;;;9.10;6.22;;;;;;;-140.79;100.00;63287.88;5027786;28;20033;-73
2021/03/02 07:07:45;;;;;;;8.40;5.82;;;;;;;-140.79;100.00;63287.88;5027877;28;20091;-75
2021/03/02 07:10:12;;;;;;;8.13;5.82;;;;;;;-140.79;100.00;63287.88;5010556;28;20095;-75
2021/03/02 07:12:40;;;;;;;9.50;6.53;;;;;;;-140.79;100.00;63287.88;5026522;28;20403;-74
2021/03/02 07:15:07;;;;;;;12.13;7.72;;;;;;;-140.79;100.00;63287.88;5009460;28;20029;-79
2021/03/02 07:17:35;;;;;;;10.68;6.57;;;;;;;-140.79;100.00;63287.88;5026846;28;20071;-76
2021/03/02 07:20:01;;;;;;;8.02;5.72;;;;;;;-140.79;100.00;63287.88;5027666;28;20025;-72
2021/03/02 07:22:27;;;;;;;9.23;6.60;;;;;;;-140.79;100.00;63287.88;5008634;28;20029;-76
2021/03/02 07:24:53;;;;;;;7.28;5.80;;;;;;;-140.79;100.00;63287.88;4996090;28;20033;-74
2021/03/02 07:27:19;;;;;;;8.00;5.72;;;;;;;-140.79;100.00;63287.88;5018378;28;20112;-74
2021/03/02 07:29:45;;;;;;;9.55;6.07;;;;;;;-140.79;100.00;63287.88;5008333;28;20132;-74
2021/03/02 07:32:10;;;;;;;7.90;5.65;;;;;;;-140.79;100.00;63287.88;5051863;28;20029;-74
2021/03/02 07:34:36;;;;;;;7.30;5.40;;;;;;;-140.79;100.00;63287.88;5040921;28;20033;-74
2021/03/02 07:37:01;;;;;;;8.38;5.60;;;;;;;-140.79;100.00;63287.88;5009199;28;20025;-75
2021/03/02 07:39:27;;;;;;;8.20;5.95;;;;;;;-140.79;100.00;63287.88;5025165;28;20033;-75
2021/03/02 07:41:53;;;;;;;9.10;5.85;;;;;;;-140.79;100.00;63287.88;5024623;28;20672;-75
2021/03/02 07:44:18;;;;;;;7.95;5.65;;;;;;;-140.79;100.00;63287.88;5027167;28;20140;-74
2021/03/02 07:46:45;;;;;;;8.45;5.63;;;;;;;-140.79;100.00;63287.88;5024523;28;20592;-75
2021/03/02 07:49:22;;;;;;;8.30;5.50;;;;;;;-140.79;100.00;63287.88;5022961;28;20091;-74
2021/03/02 07:52:00;;;;;;;8.50;5.75;;;;;;;-140.79;100.00;63287.88;5022538;28;20029;-74
2021/03/02 07:54:26;;;;;;;8.52;5.57;;;;;;;-140.79;100.00;63287.88;5026181;28;20033;-74
2021/03/02 07:57:13;;;;;;;8.35;5.18;;;;;;;-140.79;100.00;63287.88;5024216;28;20556;-74
2021/03/02 07:59:38;;;;;;;8.38;5.88;;;;;;;-140.79;100.00;63287.88;5026686;28;20032;-74
2021/03/02 08:02:16;;;;;;;9.35;6.00;;;;;;;-140.79;100.00;63287.88;5038038;28;20021;-74
2021/03/02 08:04:43;;;;;;;7.45;5.32;;;;;;;-140.79;100.00;63287.88;5030850;28;20081;-73
2021/03/02 08:07:29;;;;;;;10.30;6.00;;;;;;;-140.79;100.00;63287.88;5030772;28;20087;-74
2021/03/02 08:09:55;;;;;;;8.63;6.05;;;;;;;-140.79;100.00;63287.88;5028741;28;20041;-72
2021/03/02 08:12:27;;;;;;;8.93;5.57;;;;;;;-140.79;100.00;63287.88;5030329;28;20025;-72
2021/03/02 08:14:53;;;;;;;8.85;6.00;;;;;;;-140.79;100.00;63287.88;5031886;28;20056;-73
2021/03/02 08:17:19;;;;;;;8.13;5.45;;;;;;;-140.79;100.00;63287.88;5031147;28;20048;-73
2021/03/02 08:19:48;;;;;;;7.88;5.40;;;;;;;-140.79;100.00;63287.88;5026688;28;20434;-73
2021/03/02 08:22:20;;;;;;;8.05;5.63;;;;;;;-140.79;100.00;63287.88;5026281;28;20052;-73
2021/03/02 08:24:58;;;;;;;7.90;5.55;;;;;;;-140.79;100.00;63287.88;5027029;28;20033;-73
2021/03/02 08:27:49;;;;;;;8.05;5.45;;;;;;;-140.79;100.00;63287.88;5029168;28;20167;-72
2021/03/02 08:30:30;;;;;;;8.00;5.50;;;;;;;-140.79;100.00;63287.88;5025764;28;20037;-73
2021/03/02 08:32:58;;;;;;;8.15;5.65;;;;;;;-140.79;100.00;63287.88;5020790;28;20057;-72
2021/03/02 08:35:26;;;;;;;8.65;4.80;;;;;;;-140.79;100.00;63287.88;5031334;28;20413;-72
2021/03/02 08:38:05;;;;;;;8.80;5.80;;;;;;;-140.79;100.00;63287.88;5032367;28;20044;-73
2021/03/02 08:40:31;;;;;;;6.90;5.43;;;;;;;-140.79;100.00;63287.88;5030295;28;20569;-73
2021/03/02 08:42:59;;;;;;;7.43;5.70;;;;;;;-140.79;100.00;63287.88;5026884;28;20105;-72
2021/03/02 08:45:24;;;;;;;7.85;5.18;;;;;;;-140.79;100.00;63287.88;5030141;28;20112;-72
2021/03/02 08:47:50;;;;;;;8.60;5.85;;;;;;;-140.79;100.00;63287.88;5031152;28;20445;-72
2021/03/02 08:50:15;;;;;;;8.32;5.50;;;;;;;-140.79;100.00;63287.88;5031267;28;20025;-72
2021/03/02 08:52:41;;;;;;;9.05;5.60;;;;;;;-140.79;100.00;63287.88;5030073;28;20029;-72
2021/03/02 08:55:07;;;;;;;8.55;5.38;;;;;;;-140.79;100.00;63287.88;5034498;28;20051;-77
2021/03/02 08:57:45;;;;;;;7.63;5.72;;;;;;;-140.79;100.00;63287.88;5022375;28;20041;-73
2021/03/02 09:00:13;;;;;;;8.10;5.40;;;;;;;-140.79;100.00;63287.88;5014190;28;20102;-73
2021/03/02 09:02:45;;;;;;;8.52;5.60;;;;;;;-140.79;100.00;63287.88;5027644;28;20030;-73
2021/03/02 09:05:19;;;;;;;8.02;5.70;;;;;;;-140.79;100.00;63287.88;5029167;28;20528;-72
2021/03/02 09:08:07;;;;;;;9.32;5.63;;;;;;;-140.79;100.00;63287.88;5028647;28;20108;-71
2021/03/02 09:10:32;;;;;;;9.55;5.40;;;;;;;-140.79;100.00;63287.88;5030077;28;20029;-71
2021/03/02 09:12:58;;;;;;;6.78;4.95;;;;;;;-140.79;100.00;63287.88;5029073;28;20073;-72
2021/03/02 09:15:34;;;;;;;7.82;5.20;;;;;;;-140.79;100.00;63287.88;5028497;28;20483;-73
2021/03/02 09:18:13;;;;;;;8.57;5.53;;;;;;;-140.79;100.00;63287.88;5029278;28;20558;-72
2021/03/02 09:20:39;;;;;;;7.33;5.30;;;;;;;-140.79;100.00;63287.88;5030189;28;20549;-73
2021/03/02 09:23:04;;;;;;;7.63;5.15;;;;;;;-140.79;100.00;63287.88;5011753;28;20025;-72
2021/03/02 09:25:30;;;;;;;7.47;5.15;;;;;;;-140.79;100.00;63287.88;5029989;28;20092;-72
2021/03/02 09:27:55;;;;;;;8.35;4.95;;;;;;;-140.79;100.00;63287.88;5028103;28;20132;-72
2021/03/02 09:30:24;;;;;;;8.02;5.18;;;;;;;-140.79;100.00;63287.88;5030121;28;20037;-72
2021/03/02 09:32:49;;;;;;;7.88;5.38;;;;;;;-140.79;100.00;63287.88;5028637;28;20037;-72
2021/03/02 09:35:15;;;;;;;9.13;6.30;;;;;;;-140.79;100.00;63287.88;5012064;28;20573;-71
2021/03/02 09:37:41;;;;;;;7.85;5.32;;;;;;;-140.79;100.00;63287.88;5028209;28;20399;-72
2021/03/02 09:40:08;;;;;;;8.05;5.57;;;;;;;-140.79;100.00;63287.88;5029789;28;20441;-72
2021/03/02 09:42:34;;;;;;;7.45;5.93;;;;;;;-140.79;100.00;63287.88;5029447;28;20022;-72
2021/03/02 09:45:04;;;;;;;7.80;5.45;;;;;;;-140.79;100.00;63287.88;5029517;28;20471;-72
2021/03/02 09:47:31;;;;;;;8.65;5.30;;;;;;;-140.79;100.00;63287.88;5025450;28;20033;-72
2021/03/02 09:50:15;;;;;;;7.18;5.40;;;;;;;-140.79;100.00;63287.88;5020176;28;20037;-73
2021/03/02 09:52:47;;;;;;;7.90;5.10;;;;;;;-140.79;100.00;63287.88;5028736;28;20087;-72
2021/03/02 09:55:27;;;;;;;7.47;5.00;;;;;;;-140.79;100.00;63287.88;5012035;28;20041;-72
2021/03/02 10:00:36;;;;;;;8.38;5.32;;;;;;;-140.79;100.00;63287.88;5026329;28;20022;-72
2021/03/02 10:03:09;;;;;;;5.93;5.00;;;;;;;-140.79;100.00;63287.88;5025503;28;20056;-74
2021/03/02 10:05:38;;;;;;;7.75;4.90;;;;;;;-140.79;100.00;63287.88;5031533;28;20033;-75
2021/03/02 10:08:29;;;;;;;7.22;4.80;;;;;;;-140.79;100.00;63287.88;5035933;28;20102;-74
2021/03/02 10:11:15;;;;;;;7.15;4.93;;;;;;;-140.79;100.00;63287.88;5031351;28;20057;-75
2021/03/02 10:13:40;;;;;;;8.23;5.18;;;;;;;-140.79;100.00;63287.88;5029544;28;20037;-74
2021/03/02 10:16:31;;;;;;;6.97;4.88;;;;;;;-140.79;100.00;63287.88;5029153;28;20044;-75
2021/03/02 10:19:17;;;;;;;7.50;5.07;;;;;;;-140.79;100.00;63287.88;5026816;28;20041;-73
2021/03/02 10:21:42;;;;;;;7.35;4.80;;;;;;;-140.79;100.00;63287.88;5027949;28;20029;-75
2021/03/02 10:24:08;;;;;;;7.65;5.05;;;;;;;-140.79;100.00;63287.88;5029386;28;20028;-74
2021/03/02 10:26:37;;;;;;;6.78;4.80;;;;;;;-140.79;100.00;63287.88;5027102;28;20021;-74
2021/03/02 10:29:07;;;;;;;6.88;4.60;;;;;;;-140.79;100.00;63287.88;5028443;28;20029;-75
2021/03/02 10:31:33;;;;;;;7.30;5.00;;;;;;;-140.79;100.00;63287.88;5026675;28;20156;-79
2021/03/02 10:34:07;;;;;;;7.40;5.13;;;;;;;-140.79;100.00;63287.88;5027212;28;20025;-76
2021/03/02 10:36:33;;;;;;;6.75;4.32;;;;;;;-140.79;100.00;63287.88;5048344;28;20080;-76
2021/03/02 10:39:00;;;;;;;6.93;4.50;;;;;;;-140.79;100.00;63287.88;5030337;28;20025;-75
2021/03/02 10:41:25;;;;;;;6.47;4.20;;;;;;;-140.79;100.00;63287.88;5031184;28;20029;-82
2021/03/02 10:43:52;;;;;;;6.40;4.47;;;;;;;-140.79;100.00;63287.88;5029950;28;20583;-76
2021/03/02 10:46:18;;;;;;;5.45;4.43;;;;;;;-140.79;100.00;63287.88;5026069;28;20109;-75
2021/03/02 10:48:44;;;;;;;6.10;4.63;;;;;;;-140.79;100.00;63287.88;5027759;28;20025;-77
2021/03/02 10:51:10;;;;;;;6.05;4.43;;;;;;;-140.79;100.00;63287.88;5026063;28;20041;-76
2021/03/02 10:53:35;;;;;;;6.95;4.68;;;;;;;-140.79;100.00;63287.88;5006543;28;20426;-75
2021/03/02 10:56:01;;;;;;;197.88;133.63;;;;;;;-140.79;100.00;63287.88;5026453;28;20025;-76
2021/03/02 10:58:27;;;;;;;6.00;4.05;;;;;;;-140.79;100.00;63287.88;5026681;28;20029;-77
2021/03/02 11:00:55;;;;;;;63.97;42.97;;;;;;;-140.79;100.00;63287.88;5011705;28;20061;-78
2021/03/02 11:03:20;;;;;;;10.77;9.07;;;;;;;-140.79;100.00;63287.88;5024554;28;20053;-78
2021/03/02 11:05:47;;;;;;;41.40;36.90;;;;;;;-140.79;100.00;63287.88;5029308;28;20041;-78
2021/03/02 11:08:12;;;;;;;33.22;30.15;;;;;;;-140.79;100.00;63287.88;5025614;28;20373;-82
2021/03/02 11:10:38;;;;;;;91.22;72.70;;;;;;;-140.79;100.00;63287.88;5031723;28;20017;-81
2021/03/02 11:13:04;;;;;;;38.75;34.47;;;;;;;-140.79;100.00;63287.88;5030410;28;20068;-75
2021/03/02 11:15:29;;;;;;;30.70;27.48;;;;;;;-140.79;100.00;63287.88;5028548;28;20520;-73
2021/03/02 11:17:55;;;;;;;96.97;70.72;;;;;;;-140.79;100.00;63287.88;5018794;28;20371;-76
2021/03/02 11:20:21;;;;;;;87.18;63.33;;;;;;;-140.79;100.00;63287.88;5027470;28;20033;-78
2021/03/02 11:22:46;;;;;;;201.30;120.25;;;;;;;-140.79;100.00;63287.88;5029586;28;20028;-77
2021/03/02 11:25:17;;;;;;;207.15;121.80;;;;;;;-140.79;100.00;63287.88;5028724;28;20033;-82